sensor_id;sensor_type;location;lat;lon;timestamp;P1;durP1;ratioP1;P2;durP2;ratioP2
56141;SDS011;42018;48.588;10.836;2022-09-01T00:01:42;5.18;;;4.47;;
56141;SDS011;42018;48.588;10.836;2022-09-01T00:04:31;5.32;;;4.20;;
56141;SDS011;42018;48.588;10.836;2022-09-01T00:07:16;4.85;;;4.35;;
56141;SDS011;42018;48.588;10.836;2022-09-01T00:10:03;5.45;;;4.35;;
56141;SDS011;42018;48.588;10.836;2022-09-01T00:12:51;6.15;;;4.45;;
56141;SDS011;42018;48.588;10.836;2022-09-01T00:15:36;4.88;;;4.20;;
56141;SDS011;42018;48.588;10.836;2022-09-01T00:18:22;5.28;;;3.88;;
56141;SDS011;42018;48.588;10.836;2022-09-01T00:21:08;5.30;;;4.68;;
56141;SDS011;42018;48.588;10.836;2022-09-01T00:23:54;7.22;;;4.30;;
56141;SDS011;42018;48.588;10.836;2022-09-01T00:26:40;4.93;;;4.30;;
56141;SDS011;42018;48.588;10.836;2022-09-01T00:29:26;5.28;;;4.57;;
56141;SDS011;42018;48.588;10.836;2022-09-01T00:32:11;5.03;;;4.10;;
56141;SDS011;42018;48.588;10.836;2022-09-01T00:34:57;5.00;;;3.80;;
56141;SDS011;42018;48.588;10.836;2022-09-01T00:37:42;4.93;;;3.80;;
56141;SDS011;42018;48.588;10.836;2022-09-01T00:40:28;4.75;;;3.83;;
56141;SDS011;42018;48.588;10.836;2022-09-01T00:43:15;4.30;;;3.63;;
56141;SDS011;42018;48.588;10.836;2022-09-01T00:46:07;4.50;;;3.70;;
56141;SDS011;42018;48.588;10.836;2022-09-01T00:48:56;4.85;;;3.70;;
56141;SDS011;42018;48.588;10.836;2022-09-01T00:51:48;4.40;;;3.40;;
56141;SDS011;42018;48.588;10.836;2022-09-01T00:54:39;4.63;;;3.58;;
56141;SDS011;42018;48.588;10.836;2022-09-01T00:57:27;4.60;;;3.72;;
56141;SDS011;42018;48.588;10.836;2022-09-01T01:00:15;5.03;;;4.30;;
56141;SDS011;42018;48.588;10.836;2022-09-01T01:03:02;4.63;;;3.72;;
56141;SDS011;42018;48.588;10.836;2022-09-01T01:05:50;4.68;;;3.90;;
56141;SDS011;42018;48.588;10.836;2022-09-01T01:08:39;5.82;;;4.30;;
56141;SDS011;42018;48.588;10.836;2022-09-01T01:11:29;4.50;;;3.72;;
56141;SDS011;42018;48.588;10.836;2022-09-01T01:14:16;5.28;;;4.00;;
56141;SDS011;42018;48.588;10.836;2022-09-01T01:17:03;4.80;;;3.97;;
56141;SDS011;42018;48.588;10.836;2022-09-01T01:19:50;4.60;;;3.97;;
56141;SDS011;42018;48.588;10.836;2022-09-01T01:23:20;5.00;;;4.15;;
56141;SDS011;42018;48.588;10.836;2022-09-01T01:26:12;5.68;;;4.53;;
56141;SDS011;42018;48.588;10.836;2022-09-01T01:28:58;5.45;;;4.95;;
56141;SDS011;42018;48.588;10.836;2022-09-01T01:31:45;6.00;;;4.45;;
56141;SDS011;42018;48.588;10.836;2022-09-01T01:34:36;6.13;;;4.68;;
56141;SDS011;42018;48.588;10.836;2022-09-01T01:37:24;5.30;;;4.60;;
56141;SDS011;42018;48.588;10.836;2022-09-01T01:40:15;5.75;;;5.15;;
56141;SDS011;42018;48.588;10.836;2022-09-01T01:43:02;5.70;;;5.03;;
56141;SDS011;42018;48.588;10.836;2022-09-01T01:45:50;5.30;;;4.72;;
56141;SDS011;42018;48.588;10.836;2022-09-01T01:48:38;5.47;;;4.90;;
56141;SDS011;42018;48.588;10.836;2022-09-01T01:51:25;5.03;;;4.50;;
56141;SDS011;42018;48.588;10.836;2022-09-01T01:54:12;5.82;;;5.22;;
56141;SDS011;42018;48.588;10.836;2022-09-01T01:57:00;5.53;;;4.72;;
56141;SDS011;42018;48.588;10.836;2022-09-01T01:59:48;5.55;;;4.90;;
56141;SDS011;42018;48.588;10.836;2022-09-01T02:02:33;4.50;;;3.90;;
56141;SDS011;42018;48.588;10.836;2022-09-01T02:08:07;5.40;;;4.75;;
56141;SDS011;42018;48.588;10.836;2022-09-01T02:10:54;5.10;;;4.57;;
56141;SDS011;42018;48.588;10.836;2022-09-01T02:13:41;5.47;;;4.85;;
56141;SDS011;42018;48.588;10.836;2022-09-01T02:16:29;4.75;;;4.07;;
56141;SDS011;42018;48.588;10.836;2022-09-01T02:19:16;4.80;;;4.22;;
56141;SDS011;42018;48.588;10.836;2022-09-01T02:22:05;7.07;;;4.60;;
56141;SDS011;42018;48.588;10.836;2022-09-01T02:24:50;5.47;;;4.90;;
56141;SDS011;42018;48.588;10.836;2022-09-01T02:27:37;5.88;;;5.18;;
56141;SDS011;42018;48.588;10.836;2022-09-01T02:30:24;6.07;;;5.05;;
56141;SDS011;42018;48.588;10.836;2022-09-01T02:33:12;5.97;;;5.38;;
56141;SDS011;42018;48.588;10.836;2022-09-01T02:36:07;5.60;;;4.95;;
56141;SDS011;42018;48.588;10.836;2022-09-01T02:38:57;5.25;;;4.47;;
56141;SDS011;42018;48.588;10.836;2022-09-01T02:41:43;5.70;;;5.10;;
56141;SDS011;42018;48.588;10.836;2022-09-01T02:44:29;6.03;;;5.00;;
56141;SDS011;42018;48.588;10.836;2022-09-01T02:47:15;5.65;;;5.15;;
56141;SDS011;42018;48.588;10.836;2022-09-01T02:50:00;5.15;;;4.43;;
56141;SDS011;42018;48.588;10.836;2022-09-01T02:52:45;5.72;;;4.50;;
56141;SDS011;42018;48.588;10.836;2022-09-01T02:55:33;5.43;;;4.70;;
56141;SDS011;42018;48.588;10.836;2022-09-01T02:58:18;4.88;;;4.30;;
56141;SDS011;42018;48.588;10.836;2022-09-01T03:01:04;4.90;;;4.22;;
56141;SDS011;42018;48.588;10.836;2022-09-01T03:03:50;5.68;;;4.82;;
56141;SDS011;42018;48.588;10.836;2022-09-01T03:06:40;5.50;;;4.78;;
56141;SDS011;42018;48.588;10.836;2022-09-01T03:09:26;5.28;;;4.78;;
56141;SDS011;42018;48.588;10.836;2022-09-01T03:12:12;5.00;;;4.50;;
56141;SDS011;42018;48.588;10.836;2022-09-01T03:14:57;6.43;;;5.00;;
56141;SDS011;42018;48.588;10.836;2022-09-01T03:17:42;6.30;;;4.97;;
56141;SDS011;42018;48.588;10.836;2022-09-01T03:20:30;5.75;;;5.25;;
56141;SDS011;42018;48.588;10.836;2022-09-01T03:23:18;5.20;;;4.68;;
56141;SDS011;42018;48.588;10.836;2022-09-01T03:26:03;5.03;;;4.43;;
56141;SDS011;42018;48.588;10.836;2022-09-01T03:28:49;5.03;;;4.50;;
56141;SDS011;42018;48.588;10.836;2022-09-01T03:31:36;6.30;;;5.05;;
56141;SDS011;42018;48.588;10.836;2022-09-01T03:34:21;5.30;;;4.80;;
56141;SDS011;42018;48.588;10.836;2022-09-01T03:37:07;6.10;;;4.93;;
56141;SDS011;42018;48.588;10.836;2022-09-01T03:39:53;5.50;;;4.90;;
56141;SDS011;42018;48.588;10.836;2022-09-01T03:42:39;5.53;;;5.03;;
56141;SDS011;42018;48.588;10.836;2022-09-01T03:45:24;5.00;;;4.30;;
56141;SDS011;42018;48.588;10.836;2022-09-01T03:48:10;5.55;;;5.00;;
56141;SDS011;42018;48.588;10.836;2022-09-01T03:50:57;5.50;;;4.90;;
56141;SDS011;42018;48.588;10.836;2022-09-01T03:53:53;5.85;;;5.10;;
56141;SDS011;42018;48.588;10.836;2022-09-01T03:56:40;5.45;;;4.93;;
56141;SDS011;42018;48.588;10.836;2022-09-01T03:59:27;6.57;;;4.90;;
56141;SDS011;42018;48.588;10.836;2022-09-01T04:02:13;5.75;;;5.15;;
56141;SDS011;42018;48.588;10.836;2022-09-01T04:04:59;5.72;;;5.22;;
56141;SDS011;42018;48.588;10.836;2022-09-01T04:07:44;5.72;;;5.13;;
56141;SDS011;42018;48.588;10.836;2022-09-01T04:10:33;5.90;;;5.10;;
56141;SDS011;42018;48.588;10.836;2022-09-01T04:13:22;5.90;;;5.30;;
56141;SDS011;42018;48.588;10.836;2022-09-01T04:16:24;5.80;;;5.20;;
56141;SDS011;42018;48.588;10.836;2022-09-01T04:19:32;5.85;;;5.25;;
56141;SDS011;42018;48.588;10.836;2022-09-01T04:22:20;5.78;;;5.15;;
56141;SDS011;42018;48.588;10.836;2022-09-01T04:25:07;5.60;;;4.85;;
56141;SDS011;42018;48.588;10.836;2022-09-01T04:27:53;5.40;;;4.90;;
56141;SDS011;42018;48.588;10.836;2022-09-01T04:30:39;6.00;;;5.40;;
56141;SDS011;42018;48.588;10.836;2022-09-01T04:33:25;5.70;;;5.10;;
56141;SDS011;42018;48.588;10.836;2022-09-01T04:36:25;5.57;;;4.97;;
56141;SDS011;42018;48.588;10.836;2022-09-01T04:39:14;5.38;;;4.68;;
56141;SDS011;42018;48.588;10.836;2022-09-01T04:42:00;6.53;;;5.78;;
56141;SDS011;42018;48.588;10.836;2022-09-01T04:44:52;6.05;;;5.40;;
56141;SDS011;42018;48.588;10.836;2022-09-01T04:47:38;5.88;;;5.28;;
56141;SDS011;42018;48.588;10.836;2022-09-01T04:50:25;6.20;;;5.60;;
56141;SDS011;42018;48.588;10.836;2022-09-01T04:53:15;5.40;;;4.90;;
56141;SDS011;42018;48.588;10.836;2022-09-01T04:56:03;5.55;;;4.93;;
56141;SDS011;42018;48.588;10.836;2022-09-01T04:58:50;5.40;;;4.90;;
56141;SDS011;42018;48.588;10.836;2022-09-01T05:01:36;6.10;;;5.50;;
56141;SDS011;42018;48.588;10.836;2022-09-01T05:04:30;5.90;;;5.30;;
56141;SDS011;42018;48.588;10.836;2022-09-01T05:10:05;7.15;;;6.55;;
56141;SDS011;42018;48.588;10.836;2022-09-01T05:12:50;6.40;;;5.80;;
56141;SDS011;42018;48.588;10.836;2022-09-01T05:15:38;6.95;;;6.25;;
56141;SDS011;42018;48.588;10.836;2022-09-01T05:18:25;5.95;;;5.28;;
56141;SDS011;42018;48.588;10.836;2022-09-01T05:21:12;7.22;;;6.45;;
56141;SDS011;42018;48.588;10.836;2022-09-01T05:24:03;6.50;;;5.90;;
56141;SDS011;42018;48.588;10.836;2022-09-01T05:26:49;6.47;;;5.88;;
56141;SDS011;42018;48.588;10.836;2022-09-01T05:29:34;5.80;;;5.20;;
56141;SDS011;42018;48.588;10.836;2022-09-01T05:32:21;6.25;;;5.65;;
56141;SDS011;42018;48.588;10.836;2022-09-01T05:35:09;5.90;;;5.30;;
56141;SDS011;42018;48.588;10.836;2022-09-01T05:37:55;6.70;;;6.10;;
56141;SDS011;42018;48.588;10.836;2022-09-01T05:40:42;5.90;;;5.30;;
56141;SDS011;42018;48.588;10.836;2022-09-01T05:43:29;6.20;;;5.60;;
56141;SDS011;42018;48.588;10.836;2022-09-01T05:46:17;6.35;;;5.75;;
56141;SDS011;42018;48.588;10.836;2022-09-01T05:49:07;6.53;;;5.93;;
56141;SDS011;42018;48.588;10.836;2022-09-01T05:51:57;6.47;;;5.85;;
56141;SDS011;42018;48.588;10.836;2022-09-01T05:54:43;6.05;;;5.45;;
56141;SDS011;42018;48.588;10.836;2022-09-01T05:57:31;6.20;;;5.60;;
56141;SDS011;42018;48.588;10.836;2022-09-01T06:00:19;6.20;;;5.60;;
56141;SDS011;42018;48.588;10.836;2022-09-01T06:03:05;6.40;;;5.80;;
56141;SDS011;42018;48.588;10.836;2022-09-01T06:05:51;6.60;;;6.00;;
56141;SDS011;42018;48.588;10.836;2022-09-01T06:08:37;7.70;;;7.00;;
56141;SDS011;42018;48.588;10.836;2022-09-01T06:11:26;6.70;;;6.10;;
56141;SDS011;42018;48.588;10.836;2022-09-01T06:14:17;6.63;;;5.97;;
56141;SDS011;42018;48.588;10.836;2022-09-01T06:17:02;6.95;;;6.35;;
56141;SDS011;42018;48.588;10.836;2022-09-01T06:19:48;6.47;;;5.88;;
56141;SDS011;42018;48.588;10.836;2022-09-01T06:22:33;6.90;;;6.30;;
56141;SDS011;42018;48.588;10.836;2022-09-01T06:25:19;6.32;;;5.72;;
56141;SDS011;42018;48.588;10.836;2022-09-01T06:28:05;6.88;;;6.28;;
56141;SDS011;42018;48.588;10.836;2022-09-01T06:30:52;6.35;;;5.75;;
56141;SDS011;42018;48.588;10.836;2022-09-01T06:33:38;6.75;;;6.15;;
56141;SDS011;42018;48.588;10.836;2022-09-01T06:36:24;7.22;;;6.63;;
56141;SDS011;42018;48.588;10.836;2022-09-01T06:39:10;6.30;;;5.70;;
56141;SDS011;42018;48.588;10.836;2022-09-01T06:42:03;7.60;;;6.85;;
56141;SDS011;42018;48.588;10.836;2022-09-01T06:44:50;7.80;;;6.72;;
56141;SDS011;42018;48.588;10.836;2022-09-01T06:47:36;6.82;;;6.22;;
56141;SDS011;42018;48.588;10.836;2022-09-01T06:50:21;6.90;;;6.20;;
56141;SDS011;42018;48.588;10.836;2022-09-01T06:53:07;6.53;;;5.90;;
56141;SDS011;42018;48.588;10.836;2022-09-01T06:55:54;6.70;;;6.10;;
56141;SDS011;42018;48.588;10.836;2022-09-01T06:58:40;6.13;;;5.53;;
56141;SDS011;42018;48.588;10.836;2022-09-01T07:01:32;6.60;;;6.00;;
56141;SDS011;42018;48.588;10.836;2022-09-01T07:04:19;6.13;;;5.53;;
56141;SDS011;42018;48.588;10.836;2022-09-01T07:07:06;5.95;;;5.35;;
56141;SDS011;42018;48.588;10.836;2022-09-01T07:09:54;5.60;;;5.03;;
56141;SDS011;42018;48.588;10.836;2022-09-01T07:12:39;5.88;;;5.15;;
56141;SDS011;42018;48.588;10.836;2022-09-01T07:15:30;5.90;;;5.30;;
56141;SDS011;42018;48.588;10.836;2022-09-01T07:18:17;5.53;;;4.90;;
56141;SDS011;42018;48.588;10.836;2022-09-01T07:21:05;5.85;;;5.25;;
56141;SDS011;42018;48.588;10.836;2022-09-01T07:23:51;5.78;;;4.97;;
56141;SDS011;42018;48.588;10.836;2022-09-01T07:26:37;5.43;;;4.80;;
56141;SDS011;42018;48.588;10.836;2022-09-01T07:29:24;5.82;;;5.22;;
56141;SDS011;42018;48.588;10.836;2022-09-01T07:32:09;6.28;;;4.90;;
56141;SDS011;42018;48.588;10.836;2022-09-01T07:34:55;5.00;;;4.40;;
56141;SDS011;42018;48.588;10.836;2022-09-01T07:37:41;5.38;;;4.88;;
56141;SDS011;42018;48.588;10.836;2022-09-01T07:40:27;5.18;;;4.60;;
56141;SDS011;42018;48.588;10.836;2022-09-01T07:43:17;5.10;;;4.28;;
56141;SDS011;42018;48.588;10.836;2022-09-01T07:46:06;5.07;;;4.10;;
56141;SDS011;42018;48.588;10.836;2022-09-01T07:48:52;4.75;;;4.07;;
56141;SDS011;42018;48.588;10.836;2022-09-01T07:51:39;4.60;;;3.85;;
56141;SDS011;42018;48.588;10.836;2022-09-01T07:54:24;5.13;;;4.00;;
56141;SDS011;42018;48.588;10.836;2022-09-01T07:57:09;6.07;;;4.00;;
56141;SDS011;42018;48.588;10.836;2022-09-01T07:59:55;4.70;;;3.90;;
56141;SDS011;42018;48.588;10.836;2022-09-01T08:02:41;5.57;;;3.90;;
56141;SDS011;42018;48.588;10.836;2022-09-01T08:05:30;5.32;;;3.42;;
56141;SDS011;42018;48.588;10.836;2022-09-01T08:08:17;4.50;;;3.70;;
56141;SDS011;42018;48.588;10.836;2022-09-01T08:11:02;4.32;;;3.60;;
56141;SDS011;42018;48.588;10.836;2022-09-01T08:13:48;4.18;;;3.45;;
56141;SDS011;42018;48.588;10.836;2022-09-01T08:16:33;5.28;;;3.45;;
56141;SDS011;42018;48.588;10.836;2022-09-01T08:19:19;4.05;;;3.10;;
56141;SDS011;42018;48.588;10.836;2022-09-01T08:22:04;4.50;;;3.30;;
56141;SDS011;42018;48.588;10.836;2022-09-01T08:24:51;4.07;;;3.20;;
56141;SDS011;42018;48.588;10.836;2022-09-01T08:27:37;4.45;;;3.25;;
56141;SDS011;42018;48.588;10.836;2022-09-01T08:30:25;4.30;;;3.30;;
56141;SDS011;42018;48.588;10.836;2022-09-01T08:33:12;4.30;;;3.10;;
56141;SDS011;42018;48.588;10.836;2022-09-01T08:35:57;4.28;;;3.28;;
56141;SDS011;42018;48.588;10.836;2022-09-01T08:38:43;3.92;;;2.90;;
56141;SDS011;42018;48.588;10.836;2022-09-01T08:47:18;4.20;;;2.97;;
56141;SDS011;42018;48.588;10.836;2022-09-01T08:50:04;4.10;;;2.60;;
56141;SDS011;42018;48.588;10.836;2022-09-01T08:52:51;3.70;;;2.50;;
56141;SDS011;42018;48.588;10.836;2022-09-01T08:55:43;4.07;;;2.78;;
56141;SDS011;42018;48.588;10.836;2022-09-01T08:58:31;4.10;;;2.70;;
56141;SDS011;42018;48.588;10.836;2022-09-01T09:01:19;4.57;;;2.83;;
56141;SDS011;42018;48.588;10.836;2022-09-01T09:10:25;4.95;;;2.47;;
56141;SDS011;42018;48.588;10.836;2022-09-01T09:16:09;3.47;;;2.20;;
56141;SDS011;42018;48.588;10.836;2022-09-01T09:21:58;4.10;;;2.40;;
56141;SDS011;42018;48.588;10.836;2022-09-01T09:24:50;3.78;;;2.13;;
56141;SDS011;42018;48.588;10.836;2022-09-01T09:27:40;3.40;;;2.22;;
56141;SDS011;42018;48.588;10.836;2022-09-01T09:30:28;3.45;;;2.22;;
56141;SDS011;42018;48.588;10.836;2022-09-01T09:33:35;3.60;;;2.50;;
56141;SDS011;42018;48.588;10.836;2022-09-01T09:36:28;3.83;;;2.50;;
56141;SDS011;42018;48.588;10.836;2022-09-01T09:39:20;3.70;;;2.30;;
56141;SDS011;42018;48.588;10.836;2022-09-01T09:42:09;3.55;;;2.30;;
56141;SDS011;42018;48.588;10.836;2022-09-01T09:44:56;3.88;;;2.20;;
56141;SDS011;42018;48.588;10.836;2022-09-01T09:47:43;4.60;;;2.25;;
56141;SDS011;42018;48.588;10.836;2022-09-01T09:50:35;3.53;;;2.10;;
56141;SDS011;42018;48.588;10.836;2022-09-01T09:53:26;4.00;;;2.30;;
56141;SDS011;42018;48.588;10.836;2022-09-01T09:56:21;3.55;;;2.40;;
56141;SDS011;42018;48.588;10.836;2022-09-01T09:59:18;4.35;;;2.47;;
56141;SDS011;42018;48.588;10.836;2022-09-01T10:02:24;3.20;;;2.08;;
56141;SDS011;42018;48.588;10.836;2022-09-01T10:11:23;3.40;;;2.13;;
56141;SDS011;42018;48.588;10.836;2022-09-01T10:14:24;3.95;;;2.33;;
56141;SDS011;42018;48.588;10.836;2022-09-01T10:17:14;4.82;;;2.90;;
56141;SDS011;42018;48.588;10.836;2022-09-01T10:20:15;4.53;;;2.70;;
56141;SDS011;42018;48.588;10.836;2022-09-01T10:23:06;3.83;;;2.10;;
56141;SDS011;42018;48.588;10.836;2022-09-01T10:25:51;4.72;;;2.28;;
56141;SDS011;42018;48.588;10.836;2022-09-01T10:28:45;4.13;;;2.28;;
56141;SDS011;42018;48.588;10.836;2022-09-01T10:31:35;3.35;;;1.77;;
56141;SDS011;42018;48.588;10.836;2022-09-01T10:34:21;3.00;;;1.88;;
56141;SDS011;42018;48.588;10.836;2022-09-01T10:37:08;3.22;;;1.90;;
56141;SDS011;42018;48.588;10.836;2022-09-01T10:42:57;3.05;;;1.65;;
56141;SDS011;42018;48.588;10.836;2022-09-01T10:49:11;2.80;;;1.70;;
56141;SDS011;42018;48.588;10.836;2022-09-01T10:55:25;4.07;;;1.70;;
56141;SDS011;42018;48.588;10.836;2022-09-01T11:01:36;2.88;;;1.60;;
56141;SDS011;42018;48.588;10.836;2022-09-01T11:13:40;2.50;;;1.70;;
56141;SDS011;42018;48.588;10.836;2022-09-01T11:16:34;3.10;;;1.83;;
56141;SDS011;42018;48.588;10.836;2022-09-01T11:22:29;3.22;;;2.00;;
56141;SDS011;42018;48.588;10.836;2022-09-01T11:31:17;3.40;;;1.70;;
56141;SDS011;42018;48.588;10.836;2022-09-01T11:36:58;2.97;;;1.77;;
56141;SDS011;42018;48.588;10.836;2022-09-01T11:39:48;2.72;;;1.63;;
56141;SDS011;42018;48.588;10.836;2022-09-01T11:42:40;3.95;;;1.77;;
56141;SDS011;42018;48.588;10.836;2022-09-01T11:45:28;3.17;;;1.70;;
56141;SDS011;42018;48.588;10.836;2022-09-01T11:48:16;2.90;;;1.60;;
56141;SDS011;42018;48.588;10.836;2022-09-01T11:51:02;2.85;;;1.70;;
56141;SDS011;42018;48.588;10.836;2022-09-01T11:53:48;2.70;;;1.67;;
56141;SDS011;42018;48.588;10.836;2022-09-01T11:56:35;3.17;;;1.80;;
56141;SDS011;42018;48.588;10.836;2022-09-01T11:59:31;3.67;;;1.70;;
56141;SDS011;42018;48.588;10.836;2022-09-01T12:02:29;2.63;;;1.70;;
56141;SDS011;42018;48.588;10.836;2022-09-01T12:05:33;3.55;;;1.80;;
56141;SDS011;42018;48.588;10.836;2022-09-01T12:08:22;3.03;;;1.80;;
56141;SDS011;42018;48.588;10.836;2022-09-01T12:16:40;2.55;;;1.50;;
56141;SDS011;42018;48.588;10.836;2022-09-01T12:19:27;2.97;;;1.48;;
56141;SDS011;42018;48.588;10.836;2022-09-01T12:22:19;3.63;;;1.58;;
56141;SDS011;42018;48.588;10.836;2022-09-01T12:25:06;3.22;;;1.70;;
56141;SDS011;42018;48.588;10.836;2022-09-01T12:28:04;3.20;;;1.60;;
56141;SDS011;42018;48.588;10.836;2022-09-01T12:30:50;2.50;;;1.50;;
56141;SDS011;42018;48.588;10.836;2022-09-01T12:33:37;2.67;;;1.50;;
56141;SDS011;42018;48.588;10.836;2022-09-01T12:39:19;2.90;;;1.45;;
56141;SDS011;42018;48.588;10.836;2022-09-01T12:42:11;2.67;;;1.40;;
56141;SDS011;42018;48.588;10.836;2022-09-01T12:45:34;3.65;;;1.50;;
56141;SDS011;42018;48.588;10.836;2022-09-01T12:48:37;2.00;;;1.40;;
56141;SDS011;42018;48.588;10.836;2022-09-01T12:51:24;2.40;;;1.40;;
56141;SDS011;42018;48.588;10.836;2022-09-01T12:54:10;2.70;;;1.40;;
56141;SDS011;42018;48.588;10.836;2022-09-01T12:56:55;2.92;;;1.40;;
56141;SDS011;42018;48.588;10.836;2022-09-01T12:59:41;2.65;;;1.30;;
56141;SDS011;42018;48.588;10.836;2022-09-01T13:02:32;2.70;;;1.50;;
56141;SDS011;42018;48.588;10.836;2022-09-01T13:08:21;2.83;;;1.50;;
56141;SDS011;42018;48.588;10.836;2022-09-01T13:11:13;2.45;;;1.30;;
56141;SDS011;42018;48.588;10.836;2022-09-01T13:14:02;3.15;;;1.60;;
56141;SDS011;42018;48.588;10.836;2022-09-01T13:16:47;2.85;;;1.50;;
56141;SDS011;42018;48.588;10.836;2022-09-01T13:19:33;2.08;;;1.38;;
56141;SDS011;42018;48.588;10.836;2022-09-01T13:22:18;2.03;;;1.30;;
56141;SDS011;42018;48.588;10.836;2022-09-01T13:25:04;2.65;;;1.20;;
56141;SDS011;42018;48.588;10.836;2022-09-01T13:27:49;2.17;;;1.30;;
56141;SDS011;42018;48.588;10.836;2022-09-01T13:30:38;2.00;;;1.23;;
56141;SDS011;42018;48.588;10.836;2022-09-01T13:33:26;2.60;;;1.20;;
56141;SDS011;42018;48.588;10.836;2022-09-01T13:36:11;2.63;;;1.30;;
56141;SDS011;42018;48.588;10.836;2022-09-01T13:38:57;1.83;;;1.20;;
56141;SDS011;42018;48.588;10.836;2022-09-01T13:41:43;2.55;;;1.30;;
56141;SDS011;42018;48.588;10.836;2022-09-01T13:44:28;2.03;;;1.10;;
56141;SDS011;42018;48.588;10.836;2022-09-01T13:47:13;2.28;;;1.30;;
56141;SDS011;42018;48.588;10.836;2022-09-01T13:49:59;1.75;;;1.10;;
56141;SDS011;42018;48.588;10.836;2022-09-01T13:52:49;1.48;;;1.00;;
56141;SDS011;42018;48.588;10.836;2022-09-01T13:55:40;2.45;;;1.10;;
56141;SDS011;42018;48.588;10.836;2022-09-01T13:58:26;2.70;;;1.00;;
56141;SDS011;42018;48.588;10.836;2022-09-01T14:01:11;1.75;;;1.00;;
56141;SDS011;42018;48.588;10.836;2022-09-01T14:03:58;2.55;;;1.10;;
56141;SDS011;42018;48.588;10.836;2022-09-01T14:06:43;2.67;;;1.02;;
56141;SDS011;42018;48.588;10.836;2022-09-01T14:09:29;1.58;;;1.02;;
56141;SDS011;42018;48.588;10.836;2022-09-01T14:12:14;2.80;;;1.20;;
56141;SDS011;42018;48.588;10.836;2022-09-01T14:15:00;1.90;;;1.05;;
56141;SDS011;42018;48.588;10.836;2022-09-01T14:17:48;1.88;;;1.13;;
56141;SDS011;42018;48.588;10.836;2022-09-01T14:20:36;2.83;;;1.30;;
56141;SDS011;42018;48.588;10.836;2022-09-01T14:23:26;1.95;;;1.20;;
56141;SDS011;42018;48.588;10.836;2022-09-01T14:26:12;3.13;;;1.25;;
56141;SDS011;42018;48.588;10.836;2022-09-01T14:28:59;2.22;;;1.20;;
56141;SDS011;42018;48.588;10.836;2022-09-01T14:31:46;2.45;;;1.25;;
56141;SDS011;42018;48.588;10.836;2022-09-01T14:34:34;2.03;;;1.20;;
56141;SDS011;42018;48.588;10.836;2022-09-01T14:37:19;1.90;;;1.02;;
56141;SDS011;42018;48.588;10.836;2022-09-01T14:40:05;2.33;;;1.15;;
56141;SDS011;42018;48.588;10.836;2022-09-01T14:42:52;2.28;;;1.10;;
56141;SDS011;42018;48.588;10.836;2022-09-01T14:45:38;2.63;;;1.30;;
56141;SDS011;42018;48.588;10.836;2022-09-01T14:48:24;2.08;;;1.10;;
56141;SDS011;42018;48.588;10.836;2022-09-01T14:51:16;1.65;;;1.00;;
56141;SDS011;42018;48.588;10.836;2022-09-01T14:54:04;2.30;;;1.10;;
56141;SDS011;42018;48.588;10.836;2022-09-01T14:56:49;1.95;;;1.00;;
56141;SDS011;42018;48.588;10.836;2022-09-01T14:59:35;3.90;;;1.20;;
56141;SDS011;42018;48.588;10.836;2022-09-01T15:02:21;2.20;;;1.00;;
56141;SDS011;42018;48.588;10.836;2022-09-01T15:05:09;2.33;;;1.10;;
56141;SDS011;42018;48.588;10.836;2022-09-01T15:07:56;1.38;;;0.80;;
56141;SDS011;42018;48.588;10.836;2022-09-01T15:10:41;1.98;;;1.00;;
56141;SDS011;42018;48.588;10.836;2022-09-01T15:13:27;2.03;;;1.00;;
56141;SDS011;42018;48.588;10.836;2022-09-01T15:16:13;2.42;;;0.90;;
56141;SDS011;42018;48.588;10.836;2022-09-01T15:19:01;1.60;;;0.90;;
56141;SDS011;42018;48.588;10.836;2022-09-01T15:21:47;2.35;;;1.10;;
56141;SDS011;42018;48.588;10.836;2022-09-01T15:24:32;2.60;;;1.10;;
56141;SDS011;42018;48.588;10.836;2022-09-01T15:27:18;2.45;;;1.00;;
56141;SDS011;42018;48.588;10.836;2022-09-01T15:30:04;1.10;;;0.77;;
56141;SDS011;42018;48.588;10.836;2022-09-01T15:32:58;1.67;;;0.90;;
56141;SDS011;42018;48.588;10.836;2022-09-01T15:35:44;2.05;;;1.00;;
56141;SDS011;42018;48.588;10.836;2022-09-01T15:38:30;2.47;;;1.00;;
56141;SDS011;42018;48.588;10.836;2022-09-01T15:41:19;1.50;;;0.90;;
56141;SDS011;42018;48.588;10.836;2022-09-01T15:44:07;1.45;;;0.85;;
56141;SDS011;42018;48.588;10.836;2022-09-01T15:46:53;1.73;;;0.98;;
56141;SDS011;42018;48.588;10.836;2022-09-01T15:49:38;1.58;;;1.00;;
56141;SDS011;42018;48.588;10.836;2022-09-01T15:52:24;1.88;;;1.00;;
56141;SDS011;42018;48.588;10.836;2022-09-01T15:55:10;1.70;;;0.98;;
56141;SDS011;42018;48.588;10.836;2022-09-01T15:57:56;1.30;;;0.90;;
56141;SDS011;42018;48.588;10.836;2022-09-01T16:00:43;4.22;;;1.10;;
56141;SDS011;42018;48.588;10.836;2022-09-01T16:03:28;0.90;;;0.80;;
56141;SDS011;42018;48.588;10.836;2022-09-01T16:06:15;2.60;;;1.10;;
56141;SDS011;42018;48.588;10.836;2022-09-01T16:09:01;1.73;;;1.00;;
56141;SDS011;42018;48.588;10.836;2022-09-01T16:11:47;1.60;;;0.93;;
56141;SDS011;42018;48.588;10.836;2022-09-01T16:14:32;2.38;;;1.00;;
56141;SDS011;42018;48.588;10.836;2022-09-01T16:17:52;2.83;;;1.00;;
56141;SDS011;42018;48.588;10.836;2022-09-01T16:23:55;2.38;;;1.10;;
56141;SDS011;42018;48.588;10.836;2022-09-01T16:26:43;0.95;;;0.80;;
56141;SDS011;42018;48.588;10.836;2022-09-01T16:32:36;2.35;;;0.90;;
56141;SDS011;42018;48.588;10.836;2022-09-01T16:35:46;2.88;;;1.20;;
56141;SDS011;42018;48.588;10.836;2022-09-01T16:48:04;2.20;;;1.10;;
56141;SDS011;42018;48.588;10.836;2022-09-01T17:00:14;3.10;;;1.20;;
56141;SDS011;42018;48.588;10.836;2022-09-01T17:03:09;2.17;;;1.00;;
56141;SDS011;42018;48.588;10.836;2022-09-01T17:06:05;1.80;;;0.90;;
56141;SDS011;42018;48.588;10.836;2022-09-01T17:08:56;1.10;;;0.82;;
56141;SDS011;42018;48.588;10.836;2022-09-01T17:12:15;1.58;;;1.00;;
56141;SDS011;42018;48.588;10.836;2022-09-01T17:21:21;2.67;;;1.10;;
56141;SDS011;42018;48.588;10.836;2022-09-01T17:27:03;2.22;;;1.02;;
56141;SDS011;42018;48.588;10.836;2022-09-01T17:29:53;5.00;;;1.10;;
56141;SDS011;42018;48.588;10.836;2022-09-01T17:41:44;2.33;;;1.10;;
56141;SDS011;42018;48.588;10.836;2022-09-01T17:47:45;1.92;;;1.02;;
56141;SDS011;42018;48.588;10.836;2022-09-01T17:57:25;2.30;;;1.10;;
56141;SDS011;42018;48.588;10.836;2022-09-01T18:00:25;3.45;;;1.00;;
56141;SDS011;42018;48.588;10.836;2022-09-01T18:03:17;1.42;;;0.90;;
56141;SDS011;42018;48.588;10.836;2022-09-01T18:06:19;1.45;;;0.90;;
56141;SDS011;42018;48.588;10.836;2022-09-01T18:09:13;3.10;;;1.10;;
56141;SDS011;42018;48.588;10.836;2022-09-01T18:12:02;2.08;;;1.10;;
56141;SDS011;42018;48.588;10.836;2022-09-01T18:15:04;2.28;;;1.10;;
56141;SDS011;42018;48.588;10.836;2022-09-01T18:18:19;2.47;;;1.08;;
56141;SDS011;42018;48.588;10.836;2022-09-01T18:21:10;1.98;;;1.00;;
56141;SDS011;42018;48.588;10.836;2022-09-01T18:24:05;3.38;;;1.20;;
56141;SDS011;42018;48.588;10.836;2022-09-01T18:26:58;2.13;;;1.05;;
56141;SDS011;42018;48.588;10.836;2022-09-01T18:29:45;1.98;;;1.10;;
56141;SDS011;42018;48.588;10.836;2022-09-01T18:35:27;1.48;;;1.00;;
56141;SDS011;42018;48.588;10.836;2022-09-01T18:41:23;4.05;;;1.20;;
56141;SDS011;42018;48.588;10.836;2022-09-01T18:47:32;2.85;;;1.00;;
56141;SDS011;42018;48.588;10.836;2022-09-01T19:08:46;2.45;;;1.10;;
56141;SDS011;42018;48.588;10.836;2022-09-01T19:11:47;2.13;;;1.10;;
56141;SDS011;42018;48.588;10.836;2022-09-01T19:15:06;1.42;;;1.08;;
56141;SDS011;42018;48.588;10.836;2022-09-01T19:21:30;2.25;;;1.00;;